• Join FlightAware (Why Join?)
  • Login
  • US Flag 
12:20PM EST


 

Airport Tracker/Info


-or-


 

Live Flight TrackerFlight Track Log ✈ TCF3494 ✈ 2013年 06月 15日 ✈ KORD - KLGA

Flight Track Log - Related Links

Times and Time Zones

All times are in EDT time to prevent confusion due to time zone crossing. See the TCF3494 flight status page for this flight to view local times or setup timezone preferences in your user account.

Time Position Orientation Groundspeed Altitude Reporting Facility
EDT Latitude Longitude Course Direction KTS MPH feet Rate Location/Type
09:34PM 41.9333 -87.8833 90° East 185 213 2,300  Level Chicago TRACON
09:35PM 41.9478 -87.8047 76° East 247 284 4,100 2,182 Climbing Chicago Center
09:36PM 41.9650 -87.7025 77° East 274 315 6,700 2,780 Climbing Chicago Center
09:37PM 41.9432 -87.2714 95° East  Level FlightAware Approximate
09:37PM 41.9622 -87.5842 92° East 311 358 9,800  Level Chicago Center
09:38PM 41.9333 -87.1145 90° East  Level FlightAware Approximate
09:38PM 41.9586 -87.4597 92° East 328 377 12,400  Level Chicago Center
09:39PM 41.9333 -86.9569 90° East  Level FlightAware Approximate
09:39PM 41.9217 -87.3347 112° Southeast 355 409 14,900  Level Chicago Center
09:40PM 41.8783 -87.2075 115° Southeast 373 429 17,900 2,488 Climbing Chicago Center
09:41PM 41.8508 -87.0686 105° East 390 449 20,000 2,311 Climbing Chicago Center
09:42PM 41.8475 -86.8844 91° East 414 476 22,600 2,164 Climbing Chicago Center
09:43PM 41.8453 -86.7281 91° East 420 483 24,400 1,672 Climbing Chicago Center
09:44PM 41.8414 -86.5822 92° East 434 499 26,000 1,366 Climbing Chicago Center
09:45PM 41.8375 -86.4150 92° East 447 514 27,200 1,220 Climbing Chicago Center
09:46PM 41.8300 -86.2408 93° East 464 534 28,500 1,426 Climbing Chicago Center
09:47PM 41.8000 -86.0317 101° East 477 549 30,100 1,131 Climbing Chicago Center
09:48PM 41.7756 -85.8528 100° East 485 558 30,800 885 Climbing Chicago Center
09:49PM 41.7517 -85.6692 100° East 499 574 31,900 1,033 Climbing Chicago Center
09:50PM 41.7292 -85.4803 99° East 505 581 32,900 1,024 Climbing Chicago Center
09:51PM 41.7033 -85.3158 102° East 501 577 34,000 1,024 Climbing Chicago Center
09:52PM 41.6958 -85.0964 93° East 507 583 35,000 492 Climbing Chicago Center
09:53PM 41.6892 -84.9053 93° East 511 588 35,000  Level Chicago Center
09:54PM 41.6833 -84.7156 92° East 513 590 35,000  Level Chicago Center
09:55PM 41.6803 -84.5619 91° East 516 594 35,000  Level Cleveland Center
09:56PM 41.6722 -84.3725 93° East 516 594 35,000  Level Cleveland Center
09:57PM 41.6628 -84.2106 94° East 505 581 35,000  Level Cleveland Center
09:58PM 41.6583 -84.0186 92° East 505 581 35,000  Level Cleveland Center
09:59PM 41.6492 -83.8319 94° East 505 581 35,000  Level Cleveland Center
10:00PM 41.6419 -83.6397 93° East 505 581 35,000  Level Cleveland Center
10:01PM 41.6322 -83.4503 94° East 505 581 35,000  Level Cleveland Center
10:02PM 41.6242 -83.2639 93° East 505 581 35,000  Level Cleveland Center
10:03PM 41.6164 -83.0606 93° East 499 574 35,000  Level Cleveland Center
10:04PM 41.6097 -82.8717 93° East 504 580 35,000  Level Cleveland Center
10:05PM 41.5986 -82.6878 95° East 497 572 35,000  Level Cleveland Center
10:06PM 41.5875 -82.5042 95° East 502 578 35,000  Level Cleveland Center
10:07PM 41.5758 -82.3181 95° East 502 578 35,000  Level Cleveland Center
10:08PM 41.5636 -82.1539 96° East 502 578 35,000  Level Cleveland Center
10:09PM 41.5514 -81.9706 95° East 497 572 35,000  Level Cleveland Center
10:10PM 41.5389 -81.7872 95° East 503 579 35,000  Level Cleveland Center
10:11PM 41.5261 -81.5844 95° East 498 573 35,000  Level Cleveland Center
10:12PM 41.5089 -81.4039 97° East 498 573 35,000  Level Cleveland Center
10:13PM 41.4953 -81.2236 96° East 493 567 35,000  Level Cleveland Center
10:14PM 41.4797 -81.0433 97° East 493 567 35,000  Level Cleveland Center
10:15PM 41.4656 -80.8631 96° East 493 567 35,000  Level Cleveland Center
10:16PM 41.4533 -80.6856 95° East 485 558 35,000  Level Cleveland Center
10:17PM 41.4389 -80.5250 97° East 485 558 35,000  Level Cleveland Center
10:18PM 41.4239 -80.3256 96° East 488 562 35,000  Level Cleveland Center
10:19PM 41.4067 -80.1458 97° East 488 562 35,000  Level Cleveland Center
10:20PM 41.3936 -79.9853 96° East 481 554 35,000  Level Cleveland Center
10:21PM 41.3778 -79.8083 97° East 481 554 35,000  Level Cleveland Center
10:22PM 41.3617 -79.6067 96° East 481 554 35,000  Level Cleveland Center
10:23PM 41.3414 -79.4244 98° East 488 562 35,000  Level Cleveland Center
10:24PM 41.3269 -79.2614 97° East 494 568 35,000  Level Cleveland Center
10:25PM 41.3081 -79.0767 98° East 494 568 35,000  Level Cleveland Center
10:26PM 41.2886 -78.8753 97° East 504 580 35,000  Level Cleveland Center
10:27PM 41.2711 -78.6906 97° East 504 580 35,000  Level Cleveland Center
10:29PM 41.2406 -78.3733 97° East 502 578 35,000  Level New York Center
10:30PM 41.2217 -78.2083 99° East 507 583 35,000  Level New York Center
10:31PM 41.1997 -78.0239 99° East 507 583 35,000  Level New York Center
10:32PM 41.1775 -77.8394 99° East 507 583 35,000  Level New York Center
10:33PM 41.1461 -77.6653 103° East 502 578 35,000 -100 Level New York Center
10:34PM 41.1117 -77.4689 103° East 495 570 34,800 -1,160 Descending New York Center
10:35PM 41.0814 -77.2978 103° East 490 564 32,700 -2,182 Descending New York Center
10:36PM 41.0494 -77.1214 103° East 490 564 30,400 -2,300 Descending New York Center
10:37PM 41.0192 -76.9425 103° East 490 564 28,100 -2,269 Descending New York Center
10:38PM 40.9867 -76.7664 104° East 490 564 25,900 -2,150 Descending New York Center
10:39PM 40.9556 -76.5986 104° East 483 556 23,800 -1,900 Descending New York Center
10:40PM 40.9322 -76.4758 104° East 463 533 22,100 -2,000 Descending New York Center
10:41PM 40.8994 -76.2892 103° East 439 505 19,800 -2,150 Descending New York Center
10:42PM 40.8750 -76.1417 102° East 417 480 17,800 -1,835 Descending New York Center
10:43PM 40.8481 -75.9969 104° East 411 473 16,100 -1,750 Descending New York Center
10:44PM 40.8208 -75.8606 105° East 396 456 14,300 -1,513 Descending New York Center
10:45PM 40.7947 -75.7353 105° East 396 456 13,100 -605 Descending New York Center
10:46PM 40.7586 -75.6036 110° East 385 443 13,100  Level New York Center
10:47PM 40.7158 -75.4719 113° Southeast 385 443 13,100  Level New York Center
10:48PM 40.6731 -75.3406 113° Southeast 385 443 13,100 -250 Level New York Center
10:49PM 40.6322 -75.2092 112° Southeast 385 443 12,600 -1,322 Descending New York Center
10:50PM 40.5875 -75.0669 112° Southeast 385 443 10,500 -1,250 Descending New York Center
10:51PM 40.5483 -74.9417 112° Southeast 380 437 10,100 -252 Descending New York Center
10:52PM 40.5150 -74.8250 111° Southeast 381 438 10,000 -100 Descending New York Center
10:53PM 40.4753 -74.7025 113° Southeast 374 430 9,900 -238 Descending New York Center
10:54PM 40.4167 -74.5833 123° Southeast 326 375 9,500 -381 Descending New York TRACON
10:55PM 40.3833 -74.4833 114° Southeast 307 353 9,100 -190 Descending New York TRACON
10:56PM 40.4000 -74.3667 79° East 299 344 9,100 -48 Level New York TRACON
10:57PM 40.4500 -74.2833 52° Northeast 296 341 9,000 -900 Descending New York TRACON
10:58PM 40.5000 -74.2000 52° Northeast 284 327 7,300 -1,842 Descending New York TRACON
10:59PM 40.5500 -74.1333 45° Northeast 283 326 5,500 -1,789 Descending New York TRACON
11:00PM 40.6167 -74.0667 37° Northeast 273 314 3,900 -1,250 Descending New York TRACON
11:01PM 40.6500 -74.0000 57° Northeast 217 250 3,000 -619 Descending New York TRACON
11:02PM 40.7000 -73.9500 37° Northeast 190 219 2,600 -429 Descending New York TRACON
11:03PM 40.7167 -73.9000 66° East 169 194 2,100 -500 Descending New York TRACON